Skip to main content.
Our real time weather data display below is updated continuously via our 24/7 live data feed.
 TIME   TEMPERATURE   WINDSPEED   DIRECTION   HUMIDITY   BAROMETER   RAINFALL 
22:45 22.0°C (71.6°F) 7.4 kmh (4.6 mph) NW 83% 1019.0hPa (30.09 inHg) 0.0mm (0.00 in.)
21:45 23.0°C (73.4 °F) 3.7 kmh (2.3 mph) NW 78% 1019.0hPa (30.09 inHg) 0.0mm (0.00 in.)
20:45 24.0°C (75.2 °F) 7.4 kmh (4.6 mph) NW 73% 1017.9hPa (30.06 inHg) 0.0mm (0.00 in.)
19:45 25.0°C (77.0 °F) 9.3 kmh (5.8 mph) NW 65% 1017.9hPa (30.06 inHg) 0.0mm (0.00 in.)
18:45 26.0°C (78.8 °F) 11.1 kmh (6.9 mph) NE 65% 1017.9hPa (30.06 inHg) 0.0mm (0.00 in.)
17:45 26.0°C (78.8 °F) 11.1 kmh (6.9 mph) ENE 69% 1019.0hPa (30.09 inHg) 0.0mm (0.00 in.)
16:45 26.0°C (78.8 °F) 11.1 kmh (6.9 mph) ENE 65% 1019.0hPa (30.09 inHg) 0.0mm (0.00 in.)
15:45 27.0°C (80.6 °F) 13.0 kmh (8.1 mph) NE 65% 1019.0hPa (30.09 inHg) 0.0mm (0.00 in.)
14:45 27.0°C (80.6 °F) 13.0 kmh (8.1 mph) E 65% 1020.0hPa (30.12 inHg) 0.0mm (0.00 in.)
13:45 28.0°C (82.4 °F) 13.0 kmh (8.1 mph) SSW 61% 1020.0hPa (30.12 inHg) 0.0mm (0.00 in.)
12:15 27.0°C (80.6 °F) 9.3 kmh (5.8 mph) NNE 57% 1020.0hPa (30.12 inHg) 0.0mm (0.00 in.)
11:15 27.0°C (80.6 °F) 9.3 kmh (5.8 mph) NNW 61% 1021.0hPa (30.15 inHg) 0.0mm (0.00 in.)
10:15 26.0°C (78.8 °F) 5.6 kmh (3.5 mph) NW 69% 1021.0hPa (30.15 inHg) 0.0mm (0.00 in.)
9:15 24.0°C (75.2 °F) 5.6 kmh (3.5 mph) NW 88% 1020.0hPa (30.12 inHg) 0.0mm (0.00 in.)
8:15 22.0°C (71.6 °F) 5.6 kmh (3.5 mph) W 88% 1020.0hPa (30.12 inHg) 0.0mm (0.00 in.)
7:15 21.0°C (69.8 °F) 7.4 kmh (4.6 mph) WNW 94% 1020.0hPa (30.12 inHg) 0.0mm (0.00 in.)
6:15 21.0°C (69.8 °F) 7.4 kmh (4.6 mph) WNW 94% 1019.0hPa (30.09 inHg) 0.0mm (0.00 in.)
5:15 22.0°C (71.6 °F) 9.3 kmh (5.8 mph) WNW 94% 1020.0hPa (30.12 inHg) 0.0mm (0.00 in.)
4:15 21.0°C (69.8 °F) 5.6 kmh (3.5 mph) W 94% 1020.0hPa (30.12 inHg) 0.0mm (0.00 in.)
3:15 21.0°C (69.8 °F) 3.7 kmh (2.3 mph) NW 94% 1021.0hPa (30.15 inHg) 0.0mm (0.00 in.)
2:15 22.0°C (71.6 °F) 1.9 kmh (1.2 mph) W 88% 1021.0hPa (30.15 inHg) 0.0mm (0.00 in.)
1:15 22.0°C (71.6 °F) 5.6 kmh (3.5 mph) WNW 88% 1021.0hPa (30.15 inHg) 0.0mm (0.00 in.)
0:15 22.0°C (71.6 °F) 3.7 kmh (2.3 mph) W 88% 1022.0hPa (30.18 inHg) 0.0mm (0.00 in.)
23:15 23.0°C (73.4 °F) 3.7 kmh (2.3 mph) W 83% 1022.0hPa (30.18 inHg) 0.0mm (0.00 in.)